createdAt,value
2022-10-07T00:01:11.459Z,24.15
2022-10-07T00:03:39.708Z,26.30
2022-10-07T00:06:10.965Z,25.02
2022-10-07T00:08:42.461Z,27.48
2022-10-07T00:11:11.949Z,21.50
2022-10-07T00:13:41.777Z,22.80
2022-10-07T00:16:11.643Z,22.15
2022-10-07T00:18:41.204Z,25.85
2022-10-07T00:21:11.882Z,21.25
2022-10-07T00:23:43.129Z,16.38
2022-10-07T00:26:14.339Z,14.57
2022-10-07T00:28:43.065Z,18.92
2022-10-07T00:31:15.331Z,17.65
2022-10-07T00:33:43.810Z,15.60
2022-10-07T00:36:17.257Z,16.38
2022-10-07T00:38:51.660Z,13.80
2022-10-07T00:41:21.813Z,16.65
2022-10-07T00:43:50.195Z,14.00
2022-10-07T00:46:27.006Z,14.93
2022-10-07T00:48:55.716Z,18.05
2022-10-07T00:51:23.922Z,15.85
2022-10-07T00:53:55.529Z,17.15
2022-10-07T00:56:25.615Z,18.25
2022-10-07T00:58:54.098Z,14.95
2022-10-07T01:01:23.002Z,17.15
2022-10-07T01:03:51.197Z,15.73
2022-10-07T01:06:19.349Z,13.48
2022-10-07T01:08:49.781Z,10.65
2022-10-07T01:11:34.375Z,11.45
2022-10-07T01:14:11.289Z,11.80
2022-10-07T01:16:50.032Z,12.43
2022-10-07T01:19:41.915Z,16.90
2022-10-07T01:22:23.167Z,15.40
2022-10-07T01:25:02.636Z,10.10
2022-10-07T01:27:32.722Z,8.95
2022-10-07T01:30:05.129Z,8.98
2022-10-07T01:32:37.007Z,10.98
2022-10-07T01:35:10.628Z,9.45
2022-10-07T01:37:45.620Z,13.40
2022-10-07T01:40:18.309Z,12.15
2022-10-07T01:42:49.356Z,12.57
2022-10-07T01:45:21.656Z,14.40
2022-10-07T01:47:50.475Z,13.80
2022-10-07T01:50:24.842Z,12.73
2022-10-07T01:53:05.156Z,17.48
2022-10-07T01:55:45.238Z,14.60
2022-10-07T01:58:37.491Z,17.10
2022-10-07T02:01:17.441Z,20.23
2022-10-07T02:04:08.687Z,19.88
2022-10-07T02:06:44.804Z,18.23
2022-10-07T02:09:24.246Z,18.95
2022-10-07T02:11:59.075Z,20.58
2022-10-07T02:14:39.466Z,20.75
2022-10-07T02:17:14.249Z,17.50
2022-10-07T02:19:48.618Z,15.25
2022-10-07T02:22:19.093Z,15.23
2022-10-07T02:24:49.490Z,14.95
2022-10-07T02:27:22.114Z,16.55
2022-10-07T02:29:58.142Z,13.93
2022-10-07T02:32:29.566Z,20.88
2022-10-07T02:35:03.188Z,13.63
2022-10-07T02:37:37.962Z,14.73
2022-10-07T02:40:12.116Z,15.93
2022-10-07T02:42:49.033Z,13.15
2022-10-07T02:45:26.701Z,9.00
2022-10-07T02:48:00.535Z,8.60
2022-10-07T02:50:33.118Z,8.60
2022-10-07T02:53:04.337Z,10.32
2022-10-07T02:55:33.731Z,8.70
2022-10-07T02:58:06.882Z,8.23
2022-10-07T03:00:39.954Z,11.98
2022-10-07T03:03:08.947Z,8.90
2022-10-07T03:05:48.342Z,8.55
2022-10-07T03:08:17.216Z,13.23
2022-10-07T03:10:46.541Z,9.20
2022-10-07T03:13:16.552Z,11.85
2022-10-07T03:15:51.996Z,8.93
2022-10-07T03:18:28.665Z,10.57
2022-10-07T03:21:17.145Z,11.60
2022-10-07T03:23:50.971Z,11.02
2022-10-07T03:26:19.346Z,12.52
2022-10-07T03:28:49.047Z,16.27
2022-10-07T03:31:19.023Z,12.45
2022-10-07T03:33:50.174Z,11.02
2022-10-07T03:36:19.374Z,13.23
2022-10-07T03:38:48.722Z,10.95
2022-10-07T03:41:17.034Z,13.48
2022-10-07T03:43:46.457Z,8.93
2022-10-07T03:46:20.797Z,10.80
2022-10-07T03:48:49.087Z,18.60
2022-10-07T03:51:18.206Z,14.52
2022-10-07T03:53:46.911Z,14.15
2022-10-07T03:56:15.282Z,19.08
2022-10-07T03:58:45.054Z,13.95
2022-10-07T04:01:15.293Z,12.23
2022-10-07T04:03:51.709Z,15.40
2022-10-07T04:06:20.031Z,13.68
2022-10-07T04:08:52.755Z,11.68
2022-10-07T04:11:21.093Z,12.05
2022-10-07T04:13:51.362Z,13.38
2022-10-07T04:16:20.680Z,12.82
2022-10-07T04:18:49.097Z,12.25
2022-10-07T04:21:18.613Z,13.23
2022-10-07T04:23:47.994Z,26.50
2022-10-07T04:26:16.166Z,18.60
2022-10-07T04:28:49.259Z,20.40
2022-10-07T04:31:21.001Z,15.75
2022-10-07T04:33:55.902Z,24.10
2022-10-07T04:36:30.231Z,21.60
2022-10-07T04:39:18.626Z,18.00
2022-10-07T04:41:55.090Z,21.30
2022-10-07T04:44:28.313Z,21.67
2022-10-07T04:47:07.144Z,20.70
2022-10-07T04:49:37.954Z,16.17
2022-10-07T04:52:10.479Z,18.77
2022-10-07T04:54:40.984Z,24.05
2022-10-07T04:57:10.085Z,19.35
2022-10-07T04:59:42.585Z,15.50
2022-10-07T05:02:12.155Z,14.93
2022-10-07T05:04:40.732Z,16.63
2022-10-07T05:07:10.563Z,15.55
2022-10-07T05:09:38.872Z,14.35
2022-10-07T05:12:07.322Z,13.38
2022-10-07T05:14:35.499Z,12.73
2022-10-07T05:17:04.899Z,14.77
2022-10-07T05:19:36.121Z,12.07
2022-10-07T05:22:04.491Z,15.63
2022-10-07T05:24:34.221Z,14.07
2022-10-07T05:27:03.494Z,11.45
2022-10-07T05:29:31.679Z,10.10
2022-10-07T05:32:04.520Z,12.30
2022-10-07T05:34:34.243Z,10.60
2022-10-07T05:37:02.354Z,13.25
2022-10-07T05:39:30.490Z,10.98
2022-10-07T05:42:14.601Z,9.82
2022-10-07T05:44:50.251Z,11.07
2022-10-07T05:47:20.310Z,11.60
2022-10-07T05:49:49.335Z,11.55
2022-10-07T05:52:21.182Z,14.50
2022-10-07T05:54:51.857Z,15.25
2022-10-07T05:57:22.818Z,13.20
2022-10-07T05:59:51.724Z,17.80
2022-10-07T06:02:21.026Z,13.35
2022-10-07T06:04:50.386Z,11.85
2022-10-07T06:07:22.001Z,14.98
2022-10-07T06:10:11.138Z,14.68
2022-10-07T06:12:58.815Z,12.63
2022-10-07T06:15:27.094Z,13.45
2022-10-07T06:17:55.282Z,19.33
2022-10-07T06:20:23.666Z,13.70
2022-10-07T06:22:54.693Z,13.25
2022-10-07T06:25:23.472Z,14.77
2022-10-07T06:27:56.761Z,15.98
2022-10-07T06:30:27.201Z,12.85
2022-10-07T06:32:56.454Z,13.27
2022-10-07T06:35:24.810Z,12.73
2022-10-07T06:37:54.552Z,12.65
2022-10-07T06:40:22.876Z,12.77
2022-10-07T06:42:51.015Z,13.82
2022-10-07T06:46:01.363Z,17.02
2022-10-07T06:48:31.071Z,15.67
2022-10-07T06:51:00.065Z,17.93
2022-10-07T06:53:31.979Z,15.73
2022-10-07T06:56:03.194Z,13.77
2022-10-07T06:58:34.885Z,14.30
2022-10-07T07:01:07.065Z,16.80
2022-10-07T07:03:35.456Z,11.40
2022-10-07T07:06:04.095Z,10.73
2022-10-07T07:08:35.363Z,14.20
2022-10-07T07:11:28.498Z,11.47
2022-10-07T07:13:59.722Z,13.03
2022-10-07T07:16:30.603Z,17.07
2022-10-07T07:19:01.837Z,12.97
2022-10-07T07:21:30.855Z,12.50
2022-10-07T07:23:59.671Z,12.90
2022-10-07T07:26:28.763Z,10.50
2022-10-07T07:28:59.442Z,8.97
2022-10-07T07:31:34.741Z,12.90
2022-10-07T07:34:06.933Z,13.57
2022-10-07T07:36:37.281Z,11.00
2022-10-07T07:39:08.607Z,10.73
2022-10-07T07:41:40.636Z,11.63
2022-10-07T07:44:12.629Z,7.70
2022-10-07T07:46:45.638Z,10.57
2022-10-07T07:49:14.798Z,7.73
2022-10-07T07:51:46.158Z,9.00
2022-10-07T07:54:19.683Z,9.23
2022-10-07T07:56:50.056Z,11.17
2022-10-07T07:59:20.629Z,9.23
2022-10-07T08:01:52.473Z,9.93
2022-10-07T08:04:22.852Z,11.73
2022-10-07T08:06:51.412Z,11.50
2022-10-07T08:09:20.367Z,10.80
2022-10-07T08:11:50.068Z,10.20
2022-10-07T08:14:19.304Z,12.13
2022-10-07T08:16:53.530Z,14.90
2022-10-07T08:19:21.699Z,8.63
2022-10-07T08:21:51.897Z,6.33
2022-10-07T08:24:25.866Z,6.80
2022-10-07T08:26:54.715Z,9.60
2022-10-07T08:29:24.068Z,6.40
2022-10-07T08:31:54.107Z,7.33
2022-10-07T08:34:22.279Z,8.90
2022-10-07T08:36:51.852Z,7.87
2022-10-07T08:39:19.954Z,6.63
2022-10-07T08:41:59.192Z,6.13
2022-10-07T08:44:32.110Z,4.67
2022-10-07T08:47:07.440Z,4.67
2022-10-07T08:49:45.057Z,5.10
2022-10-07T08:52:27.589Z,5.90
2022-10-07T08:54:55.923Z,4.33
2022-10-07T08:57:38.342Z,4.37
2022-10-07T09:00:09.097Z,4.87
2022-10-07T09:02:49.711Z,4.00
2022-10-07T09:05:23.626Z,4.00
2022-10-07T09:07:55.092Z,4.17
2022-10-07T09:10:31.394Z,3.90
2022-10-07T09:13:04.779Z,3.93
2022-10-07T09:15:40.595Z,3.77
2022-10-07T09:18:20.222Z,4.60
2022-10-07T09:20:53.608Z,4.10
2022-10-07T09:23:25.290Z,4.43
2022-10-07T09:25:53.701Z,3.10
2022-10-07T09:28:27.134Z,4.27
2022-10-07T09:30:55.704Z,3.57
2022-10-07T09:33:26.434Z,3.30
2022-10-07T09:35:57.874Z,4.70
2022-10-07T09:38:35.902Z,4.43
2022-10-07T09:41:19.393Z,3.00
2022-10-07T09:44:20.462Z,3.67
2022-10-07T09:46:51.159Z,3.77
2022-10-07T09:49:35.237Z,3.57
2022-10-07T09:52:05.487Z,3.40
2022-10-07T09:54:35.952Z,3.30
2022-10-07T09:57:06.248Z,3.53
2022-10-07T09:59:35.778Z,3.57
2022-10-07T10:02:18.132Z,3.70
2022-10-07T10:04:52.584Z,3.60
2022-10-07T10:07:23.106Z,5.30
2022-10-07T10:09:52.925Z,4.20
2022-10-07T10:12:23.011Z,3.40
2022-10-07T10:14:53.023Z,3.90
2022-10-07T10:17:32.509Z,3.20
2022-10-07T10:20:39.611Z,3.37
2022-10-07T10:23:30.466Z,3.00
2022-10-07T10:26:28.302Z,3.07
2022-10-07T10:29:13.727Z,2.83
2022-10-07T10:32:04.449Z,2.93
2022-10-07T10:34:43.136Z,2.53
2022-10-07T10:37:19.091Z,2.50
2022-10-07T10:40:03.916Z,2.70
2022-10-07T10:42:41.489Z,2.27
2022-10-07T10:45:25.455Z,2.63
2022-10-07T10:48:06.007Z,2.07
2022-10-07T10:50:49.867Z,3.07
2022-10-07T10:53:34.410Z,5.87
2022-10-07T10:56:31.950Z,3.30
2022-10-07T10:59:15.078Z,4.03
2022-10-07T11:01:46.364Z,2.53
2022-10-07T11:04:28.067Z,3.00
2022-10-07T11:07:01.499Z,2.33
2022-10-07T11:09:39.065Z,3.00
2022-10-07T11:12:19.670Z,2.73
2022-10-07T11:14:57.757Z,3.10
2022-10-07T11:17:31.865Z,2.73
2022-10-07T11:20:08.477Z,2.20
2022-10-07T11:22:43.104Z,4.73
2022-10-07T11:25:21.620Z,2.67
2022-10-07T11:27:53.165Z,2.20
2022-10-07T11:30:23.885Z,1.87
2022-10-07T11:33:00.051Z,2.33
2022-10-07T11:35:33.642Z,2.27
2022-10-07T11:38:08.078Z,2.80
2022-10-07T11:40:50.540Z,2.17
2022-10-07T11:43:25.399Z,1.70
2022-10-07T11:45:58.563Z,3.73
2022-10-07T11:48:34.073Z,2.17
2022-10-07T11:51:05.270Z,2.50
2022-10-07T11:53:37.170Z,2.30
2022-10-07T11:56:16.655Z,4.07
2022-10-07T11:58:48.637Z,2.53
2022-10-07T12:01:53.404Z,2.20
2022-10-07T12:04:36.712Z,1.90
2022-10-07T12:07:37.490Z,2.33
2022-10-07T12:10:30.232Z,2.20
2022-10-07T12:13:40.166Z,3.23
2022-10-07T12:16:43.146Z,2.07
2022-10-07T12:19:23.665Z,1.87
2022-10-07T12:22:19.834Z,2.07
2022-10-07T12:25:29.173Z,3.57
2022-10-07T12:27:58.560Z,2.13
2022-10-07T12:30:52.470Z,1.87
2022-10-07T12:33:33.973Z,4.50
2022-10-07T12:36:26.413Z,1.90
2022-10-07T12:39:35.186Z,1.80
2022-10-07T12:42:08.654Z,1.93
2022-10-07T12:44:41.167Z,2.50
2022-10-07T12:47:18.557Z,2.47
2022-10-07T12:49:50.337Z,2.20
2022-10-07T12:52:23.728Z,2.47
2022-10-07T12:54:55.927Z,2.03
2022-10-07T12:57:26.508Z,2.37
2022-10-07T13:00:03.694Z,1.87
2022-10-07T13:03:17.783Z,1.90
2022-10-07T13:06:21.912Z,1.97
2022-10-07T13:09:34.811Z,3.50
2022-10-07T13:12:35.894Z,1.73
2022-10-07T13:15:19.224Z,3.03
2022-10-07T13:17:52.907Z,4.53
2022-10-07T13:20:36.313Z,2.13
2022-10-07T13:23:12.819Z,3.00
2022-10-07T13:25:49.273Z,2.07
2022-10-07T13:28:20.022Z,4.47
2022-10-07T13:30:48.248Z,2.40
2022-10-07T13:33:23.126Z,2.10
2022-10-07T13:35:53.776Z,4.03
2022-10-07T13:38:24.040Z,2.00
2022-10-07T13:41:03.562Z,2.23
2022-10-07T13:43:34.477Z,2.30
2022-10-07T13:46:05.222Z,3.70
2022-10-07T13:48:40.727Z,3.20
2022-10-07T13:51:21.890Z,2.53
2022-10-07T13:53:55.633Z,2.40
2022-10-07T13:56:26.432Z,2.57
2022-10-07T13:58:56.210Z,3.57
2022-10-07T14:01:27.433Z,2.53
2022-10-07T14:04:12.596Z,2.67
2022-10-07T14:06:50.178Z,2.43
2022-10-07T14:09:26.225Z,3.40
2022-10-07T14:11:57.723Z,2.80
2022-10-07T14:14:29.150Z,4.00
2022-10-07T14:17:00.279Z,2.50
2022-10-07T14:19:33.005Z,3.30
2022-10-07T14:22:05.735Z,2.40
2022-10-07T14:24:33.946Z,2.30
2022-10-07T14:27:02.116Z,2.83
2022-10-07T14:29:38.758Z,2.40
2022-10-07T14:32:35.528Z,2.67
2022-10-07T14:35:19.785Z,2.83
2022-10-07T14:37:49.649Z,2.37
2022-10-07T14:40:20.241Z,3.10
2022-10-07T14:42:48.978Z,2.77
2022-10-07T14:45:18.998Z,2.73
2022-10-07T14:47:47.162Z,3.23
2022-10-07T14:50:16.399Z,3.33
2022-10-07T14:52:47.573Z,3.70
2022-10-07T14:55:20.306Z,2.90
2022-10-07T14:57:48.810Z,3.87
2022-10-07T15:00:20.267Z,2.67
2022-10-07T15:02:50.265Z,11.10
2022-10-07T15:05:19.139Z,3.50
2022-10-07T15:07:47.609Z,7.67
2022-10-07T15:10:19.476Z,2.87
2022-10-07T15:12:49.031Z,3.60
2022-10-07T15:15:17.553Z,3.70
2022-10-07T15:17:45.774Z,3.57
2022-10-07T15:20:16.208Z,3.77
2022-10-07T15:22:45.609Z,4.43
2022-10-07T15:25:15.637Z,4.23
2022-10-07T15:27:45.443Z,4.90
2022-10-07T15:30:14.602Z,5.93
2022-10-07T15:32:43.063Z,4.60
2022-10-07T15:35:11.720Z,4.43
2022-10-07T15:37:39.815Z,4.30
2022-10-07T15:40:09.378Z,6.00
2022-10-07T15:42:37.557Z,5.03
2022-10-07T15:45:08.277Z,3.60
2022-10-07T15:47:36.546Z,12.20
2022-10-07T15:50:05.795Z,5.47
2022-10-07T15:52:34.190Z,4.60
2022-10-07T15:55:07.559Z,5.30
2022-10-07T15:57:36.553Z,7.40
2022-10-07T16:00:06.753Z,4.27
2022-10-07T16:02:40.073Z,5.87
2022-10-07T16:05:09.722Z,4.77
2022-10-07T16:07:37.989Z,4.50
2022-10-07T16:10:10.797Z,6.20
2022-10-07T16:12:41.095Z,4.60
2022-10-07T16:15:11.485Z,4.00
2022-10-07T16:17:39.582Z,4.70
2022-10-07T16:20:11.396Z,5.10
2022-10-07T16:22:39.794Z,6.43
2022-10-07T16:25:08.520Z,6.47
2022-10-07T16:27:50.487Z,7.03
2022-10-07T16:30:37.351Z,5.60
2022-10-07T16:33:05.601Z,6.37
2022-10-07T16:35:33.722Z,5.33
2022-10-07T16:38:02.853Z,7.87
2022-10-07T16:40:30.991Z,5.20
2022-10-07T16:43:00.110Z,6.23
2022-10-07T16:45:29.638Z,8.77
2022-10-07T16:47:58.680Z,5.33
2022-10-07T16:50:26.917Z,6.20
2022-10-07T16:52:55.049Z,5.97
2022-10-07T16:55:23.747Z,6.67
2022-10-07T16:57:53.557Z,8.93
2022-10-07T17:00:22.287Z,6.60
2022-10-07T17:02:51.768Z,7.10
2022-10-07T17:05:19.895Z,6.20
2022-10-07T17:07:48.644Z,6.30
2022-10-07T17:10:16.955Z,6.10
2022-10-07T17:12:45.091Z,5.83
2022-10-07T17:15:13.237Z,6.57
2022-10-07T17:17:41.344Z,6.10
2022-10-07T17:20:12.017Z,5.47
2022-10-07T17:22:40.287Z,5.77
2022-10-07T17:25:09.033Z,7.60
2022-10-07T17:27:37.233Z,7.83
2022-10-07T17:30:06.301Z,7.43
2022-10-07T17:32:34.374Z,6.20
2022-10-07T17:35:02.635Z,5.77
2022-10-07T17:37:32.374Z,6.40
2022-10-07T17:40:00.486Z,5.87
2022-10-07T17:42:28.630Z,5.47
2022-10-07T17:44:56.715Z,9.57
2022-10-07T17:47:25.079Z,5.47
2022-10-07T17:49:54.294Z,5.50
2022-10-07T17:52:27.162Z,6.13
2022-10-07T17:54:57.050Z,8.40
2022-10-07T17:57:26.494Z,5.73
2022-10-07T17:59:54.589Z,5.57
2022-10-07T18:02:22.818Z,6.90
2022-10-07T18:04:51.757Z,7.10
2022-10-07T18:07:19.978Z,4.73
2022-10-07T18:09:48.074Z,7.63
2022-10-07T18:12:35.266Z,7.20
2022-10-07T18:15:22.021Z,7.20
2022-10-07T18:17:51.799Z,6.63
2022-10-07T18:20:21.318Z,6.37
2022-10-07T18:22:54.137Z,8.90
2022-10-07T18:25:22.285Z,7.73
2022-10-07T18:27:53.102Z,7.77
2022-10-07T18:30:21.267Z,6.47
2022-10-07T18:32:49.394Z,6.70
2022-10-07T18:35:18.594Z,6.90
2022-10-07T18:37:47.008Z,7.97
2022-10-07T18:40:15.490Z,7.00
2022-10-07T18:42:44.089Z,12.30
2022-10-07T18:45:13.698Z,14.07
2022-10-07T18:47:41.834Z,17.07
2022-10-07T18:50:10.418Z,16.80
2022-10-07T18:52:38.503Z,19.67
2022-10-07T18:55:07.156Z,15.98
2022-10-07T18:57:35.306Z,18.00
2022-10-07T19:00:03.486Z,14.65
2022-10-07T19:02:33.470Z,10.55
2022-10-07T19:05:01.587Z,11.93
2022-10-07T19:07:31.070Z,9.55
2022-10-07T19:09:59.343Z,13.73
2022-10-07T19:12:44.995Z,9.68
2022-10-07T19:15:13.142Z,10.07
2022-10-07T19:17:42.589Z,8.95
2022-10-07T19:20:11.238Z,10.38
2022-10-07T19:22:39.322Z,17.75
2022-10-07T19:25:25.821Z,9.60
2022-10-07T19:27:53.929Z,10.00
2022-10-07T19:30:22.061Z,11.70
2022-10-07T19:32:52.710Z,12.93
2022-10-07T19:35:20.807Z,17.33
2022-10-07T19:37:49.140Z,16.95
2022-10-07T19:40:17.702Z,19.52
2022-10-07T19:42:45.810Z,24.48
2022-10-07T19:45:14.291Z,29.63
2022-10-07T19:47:42.387Z,21.83
2022-10-07T19:50:13.118Z,25.60
2022-10-07T19:52:41.254Z,24.73
2022-10-07T19:55:10.025Z,22.75
2022-10-07T19:57:38.126Z,22.40
2022-10-07T20:00:07.334Z,24.35
2022-10-07T20:02:40.452Z,20.85
2022-10-07T20:05:09.685Z,21.25
2022-10-07T20:07:39.149Z,23.10
2022-10-07T20:10:08.480Z,31.45
2022-10-07T20:12:37.654Z,28.40
2022-10-07T20:15:06.098Z,26.20
2022-10-07T20:17:34.204Z,33.22
2022-10-07T20:20:02.332Z,34.92
2022-10-07T20:22:31.362Z,28.67
2022-10-07T20:25:00.880Z,23.98
2022-10-07T20:27:29.090Z,21.67
2022-10-07T20:30:02.324Z,20.50
2022-10-07T20:32:33.978Z,37.15
2022-10-07T20:35:05.331Z,28.05
2022-10-07T20:37:33.607Z,22.40
2022-10-07T20:40:20.308Z,21.80
2022-10-07T20:42:48.708Z,24.45
2022-10-07T20:45:17.362Z,17.98
2022-10-07T20:47:46.236Z,20.13
2022-10-07T20:50:14.447Z,14.88
2022-10-07T20:52:42.631Z,15.50
2022-10-07T20:55:14.250Z,15.90
2022-10-07T20:57:42.523Z,13.15
2022-10-07T21:00:16.317Z,17.92
2022-10-07T21:02:45.500Z,10.95
2022-10-07T21:05:13.904Z,12.13
2022-10-07T21:07:42.898Z,11.85
2022-10-07T21:10:12.428Z,11.32
2022-10-07T21:12:41.170Z,14.48
2022-10-07T21:15:09.815Z,10.10
2022-10-07T21:17:38.727Z,10.05
2022-10-07T21:20:07.337Z,12.15
2022-10-07T21:22:36.458Z,11.48
2022-10-07T21:25:05.229Z,12.57
2022-10-07T21:27:34.718Z,11.70
2022-10-07T21:30:02.851Z,9.27
2022-10-07T21:32:30.958Z,10.80
2022-10-07T21:34:59.064Z,9.40
2022-10-07T21:37:27.205Z,10.18
2022-10-07T21:39:55.298Z,14.73
2022-10-07T21:42:23.803Z,10.70
2022-10-07T21:44:53.733Z,12.48
2022-10-07T21:47:21.818Z,11.07
2022-10-07T21:49:51.116Z,10.23
2022-10-07T21:52:19.461Z,10.90
2022-10-07T21:54:47.558Z,12.13
2022-10-07T21:57:15.667Z,13.90
2022-10-07T21:59:43.778Z,13.38
2022-10-07T22:02:13.796Z,10.45
2022-10-07T22:04:42.507Z,10.23
2022-10-07T22:07:29.700Z,9.55
2022-10-07T22:09:58.519Z,8.07
2022-10-07T22:12:27.238Z,9.10
2022-10-07T22:14:55.330Z,10.15
2022-10-07T22:17:27.094Z,10.10
2022-10-07T22:19:55.246Z,10.90
2022-10-07T22:22:23.347Z,10.38
2022-10-07T22:24:51.476Z,9.73
2022-10-07T22:27:19.597Z,9.45
2022-10-07T22:29:48.023Z,10.20
2022-10-07T22:32:16.126Z,10.18
2022-10-07T22:35:03.058Z,13.80
2022-10-07T22:37:31.281Z,10.25
2022-10-07T22:39:59.407Z,11.93
2022-10-07T22:42:27.655Z,11.32
2022-10-07T22:44:55.733Z,16.90
2022-10-07T22:47:24.228Z,13.55
2022-10-07T22:49:55.243Z,11.93
2022-10-07T22:52:23.339Z,12.15
2022-10-07T22:54:52.722Z,15.48
2022-10-07T22:57:20.905Z,16.00
2022-10-07T22:59:49.026Z,15.65
2022-10-07T23:02:17.221Z,17.85
2022-10-07T23:04:45.438Z,15.32
2022-10-07T23:07:15.371Z,14.70
2022-10-07T23:09:43.464Z,17.60
2022-10-07T23:12:11.562Z,20.67
2022-10-07T23:14:40.339Z,17.48
2022-10-07T23:17:10.262Z,15.68
2022-10-07T23:19:38.654Z,13.40
2022-10-07T23:22:07.385Z,15.60
2022-10-07T23:24:37.122Z,12.88
2022-10-07T23:27:05.434Z,13.00
2022-10-07T23:29:33.780Z,14.60
2022-10-07T23:32:01.903Z,15.32
2022-10-07T23:34:30.001Z,14.07
2022-10-07T23:36:58.087Z,12.30
2022-10-07T23:39:26.294Z,13.57
2022-10-07T23:41:56.011Z,11.25
2022-10-07T23:44:24.759Z,11.48
2022-10-07T23:46:53.344Z,12.10
2022-10-07T23:49:21.487Z,11.98
2022-10-07T23:51:50.053Z,11.57
2022-10-07T23:54:18.365Z,11.55
2022-10-07T23:56:46.506Z,11.10
2022-10-07T23:59:16.811Z,12.20
